createdAt,value
2018-11-13T00:00:31.712Z,97798.16
2018-11-13T00:03:01.355Z,97806.56
2018-11-13T00:05:30.273Z,97800.09
2018-11-13T00:07:59.255Z,97799.98
2018-11-13T00:10:28.060Z,97800.20
2018-11-13T00:12:56.856Z,97799.70
2018-11-13T00:15:26.175Z,97806.66
2018-11-13T00:17:55.017Z,97806.23
2018-11-13T00:20:24.220Z,97808.02
2018-11-13T00:22:53.551Z,97802.53
2018-11-13T00:25:22.327Z,97795.46
2018-11-13T00:27:51.352Z,97788.40
2018-11-13T00:30:23.299Z,97785.41
2018-11-13T00:32:52.108Z,97792.23
2018-11-13T00:35:21.520Z,97784.45
2018-11-13T00:37:50.854Z,97793.42
2018-11-13T00:40:19.663Z,97793.92
2018-11-13T00:42:48.932Z,97795.39
2018-11-13T00:45:17.752Z,97785.55
2018-11-13T00:47:47.083Z,97789.85
2018-11-13T00:50:17.490Z,97796.08
2018-11-13T00:52:46.769Z,97801.09
2018-11-13T00:55:15.993Z,97805.86
2018-11-13T00:57:45.120Z,97808.75
2018-11-13T01:00:15.664Z,97802.77
2018-11-13T01:02:45.150Z,97794.14
2018-11-13T01:05:15.113Z,97802.28
2018-11-13T01:07:45.190Z,97806.31
2018-11-13T01:10:15.449Z,97808.25
2018-11-13T01:12:45.218Z,97801.78
2018-11-13T01:15:15.451Z,97796.76
2018-11-13T01:17:45.171Z,97795.23
2018-11-13T01:20:15.719Z,97801.66
2018-11-13T01:22:44.524Z,97793.23
2018-11-13T01:25:14.277Z,97795.95
2018-11-13T01:27:43.670Z,97785.63
2018-11-13T01:30:13.538Z,97801.19
2018-11-13T01:32:43.275Z,97796.95
2018-11-13T01:35:13.356Z,97801.07
2018-11-13T01:37:42.185Z,97801.44
2018-11-13T01:40:12.956Z,97798.55
2018-11-13T01:42:42.379Z,97792.60
2018-11-13T01:45:12.618Z,97796.39
2018-11-13T01:47:42.206Z,97801.78
2018-11-13T01:50:11.612Z,97797.69
2018-11-13T01:52:40.403Z,97799.98
2018-11-13T01:55:10.906Z,97804.88
2018-11-13T01:57:39.883Z,97805.95
2018-11-13T02:00:20.374Z,97808.20
2018-11-13T02:02:50.246Z,97807.61
2018-11-13T02:05:20.449Z,97797.77
2018-11-13T02:07:50.253Z,97807.83
2018-11-13T02:10:19.488Z,97808.17
2018-11-13T02:12:48.665Z,97800.49
2018-11-13T02:15:17.883Z,97800.83
2018-11-13T02:17:46.942Z,97796.38
2018-11-13T02:20:19.011Z,97788.08
2018-11-13T02:22:47.809Z,97793.88
2018-11-13T02:25:17.884Z,97794.61
2018-11-13T02:27:47.279Z,97779.88
2018-11-13T02:30:17.295Z,97788.62
2018-11-13T02:32:49.848Z,97787.86
2018-11-13T02:35:18.869Z,97790.44
2018-11-13T02:37:47.892Z,97781.78
2018-11-13T02:40:16.920Z,97779.55
2018-11-13T02:42:45.928Z,97776.44
2018-11-13T02:45:17.345Z,97777.02
2018-11-13T02:47:46.709Z,97780.58
2018-11-13T02:50:16.962Z,97771.22
2018-11-13T02:52:45.757Z,97770.36
2018-11-13T02:55:14.752Z,97772.56
2018-11-13T02:57:44.439Z,97766.10
2018-11-13T03:00:16.453Z,97769.69
2018-11-13T03:02:45.469Z,97767.86
2018-11-13T03:05:15.362Z,97777.16
2018-11-13T03:07:44.167Z,97790.94
2018-11-13T03:10:14.340Z,97791.97
2018-11-13T03:12:43.189Z,97786.27
2018-11-13T03:15:13.279Z,97794.38
2018-11-13T03:17:42.207Z,97790.17
2018-11-13T03:20:12.772Z,97785.53
2018-11-13T03:22:42.563Z,97797.59
2018-11-13T03:25:13.782Z,97801.73
2018-11-13T03:27:42.776Z,97793.14
2018-11-13T03:30:14.276Z,97789.70
2018-11-13T03:32:43.507Z,97787.69
2018-11-13T03:35:12.472Z,97783.73
2018-11-13T03:37:41.815Z,97783.05
2018-11-13T03:40:11.151Z,97788.16
2018-11-13T03:42:40.294Z,97796.53
2018-11-13T03:45:10.325Z,97796.06
2018-11-13T03:47:39.528Z,97791.16
2018-11-13T03:50:11.527Z,97792.31
2018-11-13T03:52:40.309Z,97782.48
2018-11-13T03:55:10.501Z,97781.39
2018-11-13T03:57:40.467Z,97783.44
2018-11-13T04:00:11.515Z,97798.03
2018-11-13T04:02:40.654Z,97807.46
2018-11-13T04:05:11.290Z,97810.17
2018-11-13T04:07:41.211Z,97814.48
2018-11-13T04:10:11.632Z,97814.63
2018-11-13T04:12:40.867Z,97815.22
2018-11-13T04:15:11.451Z,97816.61
2018-11-13T04:17:40.382Z,97824.28
2018-11-13T04:20:10.688Z,97825.78
2018-11-13T04:22:39.903Z,97826.03
2018-11-13T04:25:08.716Z,97826.58
2018-11-13T04:27:37.555Z,97835.42
2018-11-13T04:30:08.156Z,97840.21
2018-11-13T04:32:37.570Z,97848.28
2018-11-13T04:35:07.619Z,97861.93
2018-11-13T04:37:36.447Z,97872.52
2018-11-13T04:40:07.519Z,97876.49
2018-11-13T04:42:36.482Z,97878.98
2018-11-13T04:45:07.471Z,97881.36
2018-11-13T04:47:36.443Z,97884.30
2018-11-13T04:50:06.315Z,97876.14
2018-11-13T04:52:35.127Z,97879.19
2018-11-13T04:55:04.049Z,97868.75
2018-11-13T04:57:33.388Z,97866.44
2018-11-13T05:00:02.175Z,97863.55
2018-11-13T05:02:30.956Z,97865.61
2018-11-13T05:04:59.744Z,97868.75
2018-11-13T05:07:28.564Z,97871.59
2018-11-13T05:09:57.633Z,97874.70
2018-11-13T05:12:26.687Z,97873.02
2018-11-13T05:14:55.675Z,97869.66
2018-11-13T05:17:24.537Z,97863.12
2018-11-13T05:19:53.355Z,97871.45
2018-11-13T05:22:22.128Z,97879.03
2018-11-13T05:24:50.932Z,97879.19
2018-11-13T05:27:19.933Z,97877.08
2018-11-13T05:29:49.047Z,97871.55
2018-11-13T05:32:18.171Z,97887.81
2018-11-13T05:34:47.019Z,97900.17
2018-11-13T05:37:15.823Z,97897.39
2018-11-13T05:39:44.595Z,97901.86
2018-11-13T05:42:13.384Z,97888.13
2018-11-13T05:44:42.373Z,97889.63
2018-11-13T05:47:13.259Z,97902.80
2018-11-13T05:49:42.242Z,97906.86
2018-11-13T05:52:11.044Z,97896.78
2018-11-13T05:54:39.904Z,97908.55
2018-11-13T05:57:09.039Z,97909.86
2018-11-13T05:59:38.177Z,97916.02
2018-11-13T06:02:07.120Z,97913.55
2018-11-13T06:04:35.890Z,97919.38
2018-11-13T06:07:04.682Z,97914.13
2018-11-13T06:09:33.497Z,97914.39
2018-11-13T06:12:02.585Z,97925.22
2018-11-13T06:14:31.897Z,97930.38
2018-11-13T06:17:02.243Z,97928.80
2018-11-13T06:19:31.220Z,97933.95
2018-11-13T06:21:59.988Z,97936.48
2018-11-13T06:24:28.770Z,97939.01
2018-11-13T06:26:57.565Z,97942.31
2018-11-13T06:29:26.563Z,97949.69
2018-11-13T06:31:55.532Z,97954.42
2018-11-13T06:34:24.753Z,97959.36
2018-11-13T06:36:53.728Z,97967.57
2018-11-13T06:39:22.515Z,97964.78
2018-11-13T06:41:51.300Z,97967.14
2018-11-13T06:44:20.060Z,97974.17
2018-11-13T06:46:49.052Z,97971.44
2018-11-13T06:49:18.052Z,97977.91
2018-11-13T06:51:47.003Z,97982.49
2018-11-13T06:54:27.059Z,97981.32
2018-11-13T06:56:55.837Z,97980.48
2018-11-13T06:59:24.637Z,97987.69
2018-11-13T07:01:53.395Z,97985.49
2018-11-13T07:04:22.531Z,97986.27
2018-11-13T07:06:51.295Z,98006.36
2018-11-13T07:09:20.604Z,98004.74
2018-11-13T07:11:49.575Z,97998.78
2018-11-13T07:14:18.347Z,98006.94
2018-11-13T07:16:47.142Z,98005.83
2018-11-13T07:19:16.171Z,98015.91
2018-11-13T07:21:44.957Z,98026.96
2018-11-13T07:24:13.743Z,98028.56
2018-11-13T07:26:42.787Z,98039.24
2018-11-13T07:29:11.573Z,98039.99
2018-11-13T07:31:40.352Z,98041.16
2018-11-13T07:34:09.228Z,98040.28
2018-11-13T07:36:38.121Z,98046.95
2018-11-13T07:39:08.761Z,98051.75
2018-11-13T07:41:37.540Z,98053.33
2018-11-13T07:44:06.339Z,98057.81
2018-11-13T07:46:35.222Z,98071.40
2018-11-13T07:49:04.513Z,98069.34
2018-11-13T07:51:33.467Z,98062.06
2018-11-13T07:54:02.411Z,98073.89
2018-11-13T07:56:31.383Z,98084.86
2018-11-13T07:59:00.185Z,98086.58
2018-11-13T08:01:28.973Z,98103.25
2018-11-13T08:03:58.069Z,98095.90
2018-11-13T08:06:26.897Z,98098.51
2018-11-13T08:08:55.850Z,98107.88
2018-11-13T08:11:24.595Z,98105.23
2018-11-13T08:13:53.745Z,98116.17
2018-11-13T08:16:22.914Z,98114.16
2018-11-13T08:18:52.254Z,98119.84
2018-11-13T08:21:21.928Z,98122.22
2018-11-13T08:23:50.696Z,98124.85
2018-11-13T08:26:22.542Z,98123.70
2018-11-13T08:28:51.519Z,98134.48
2018-11-13T08:31:20.409Z,98125.77
2018-11-13T08:33:49.331Z,98123.81
2018-11-13T08:36:18.084Z,98136.89
2018-11-13T08:38:46.857Z,98145.25
2018-11-13T08:41:15.811Z,98148.36
2018-11-13T08:43:44.836Z,98148.54
2018-11-13T08:46:14.092Z,98154.75
2018-11-13T08:48:42.937Z,98150.09
2018-11-13T08:51:11.781Z,98152.98
2018-11-13T08:53:40.780Z,98153.16
2018-11-13T08:56:09.870Z,98157.28
2018-11-13T08:58:38.764Z,98142.50
2018-11-13T09:01:07.711Z,98161.85
2018-11-13T09:03:36.491Z,98166.72
2018-11-13T09:06:05.620Z,98170.12
2018-11-13T09:08:34.356Z,98178.95
2018-11-13T09:11:03.572Z,98183.11
2018-11-13T09:13:32.337Z,98192.52
2018-11-13T09:16:01.312Z,98199.89
2018-11-13T09:18:31.482Z,98204.70
2018-11-13T09:21:00.257Z,98216.36
2018-11-13T09:23:29.313Z,98225.23
2018-11-13T09:25:58.156Z,98225.06
2018-11-13T09:28:26.912Z,98220.50
2018-11-13T09:30:56.139Z,98230.86
2018-11-13T09:33:24.809Z,98233.45
2018-11-13T09:35:53.831Z,98237.81
2018-11-13T09:38:22.847Z,98244.36
2018-11-13T09:40:51.931Z,98251.31
2018-11-13T09:43:20.747Z,98259.02
2018-11-13T09:45:49.521Z,98251.31
2018-11-13T09:48:18.502Z,98248.19
2018-11-13T09:50:47.323Z,98249.03
2018-11-13T09:53:16.299Z,98255.81
2018-11-13T09:55:45.629Z,98256.90
2018-11-13T09:58:14.569Z,98263.20
2018-11-13T10:00:43.595Z,98265.95
2018-11-13T10:03:12.851Z,98271.86
2018-11-13T10:05:41.441Z,98270.57
2018-11-13T10:08:10.477Z,98278.44
2018-11-13T10:10:40.729Z,98291.38
2018-11-13T10:13:10.651Z,98292.14
2018-11-13T10:15:40.983Z,98295.58
2018-11-13T10:18:09.968Z,98301.06
2018-11-13T10:20:38.738Z,98279.69
2018-11-13T10:23:07.516Z,98276.33
2018-11-13T10:25:36.958Z,98263.78
2018-11-13T10:28:05.736Z,98291.26
2018-11-13T10:30:34.683Z,98287.91
2018-11-13T10:33:03.441Z,98279.41
2018-11-13T10:35:32.404Z,98294.93
2018-11-13T10:38:01.392Z,98291.75
2018-11-13T10:40:30.524Z,98282.66
2018-11-13T10:42:59.362Z,98284.34
2018-11-13T10:45:28.663Z,98287.34
2018-11-13T10:47:58.559Z,98286.69
2018-11-13T10:50:27.751Z,98289.12
2018-11-13T10:52:57.412Z,98279.63
2018-11-13T10:55:26.387Z,98274.07
2018-11-13T10:57:55.350Z,98267.89
2018-11-13T11:00:27.927Z,98273.91
2018-11-13T11:03:02.680Z,98269.11
2018-11-13T11:05:31.515Z,98257.53
2018-11-13T11:08:00.375Z,98259.05
2018-11-13T11:10:29.436Z,98259.06
2018-11-13T11:12:58.569Z,98257.28
2018-11-13T11:15:27.487Z,98255.97
2018-11-13T11:17:56.247Z,98240.21
2018-11-13T11:20:25.214Z,98238.33
2018-11-13T11:22:54.190Z,98246.22
2018-11-13T11:25:23.071Z,98249.66
2018-11-13T11:27:52.078Z,98248.28
2018-11-13T11:30:20.972Z,98263.86
2018-11-13T11:32:50.104Z,98270.24
2018-11-13T11:35:19.163Z,98276.72
2018-11-13T11:37:48.247Z,98267.42
2018-11-13T11:40:17.263Z,98271.58
2018-11-13T11:42:46.015Z,98263.73
2018-11-13T11:45:15.247Z,98274.64
2018-11-13T11:47:44.261Z,98273.91
2018-11-13T11:50:13.850Z,98275.52
2018-11-13T11:52:43.404Z,98298.40
2018-11-13T11:55:12.871Z,98281.09
2018-11-13T11:57:42.433Z,98271.31
2018-11-13T12:00:13.599Z,98263.41
2018-11-13T12:02:42.779Z,98262.06
2018-11-13T12:05:11.859Z,98257.28
2018-11-13T12:07:40.621Z,98242.80
2018-11-13T12:10:11.535Z,98248.91
2018-11-13T12:12:40.621Z,98254.55
2018-11-13T12:15:10.875Z,98257.73
2018-11-13T12:17:39.648Z,98265.08
2018-11-13T12:20:09.779Z,98267.71
2018-11-13T12:22:39.093Z,98261.60
2018-11-13T12:25:10.400Z,98247.75
2018-11-13T12:27:39.559Z,98259.16
2018-11-13T12:30:11.549Z,98273.38
2018-11-13T12:32:40.672Z,98274.94
2018-11-13T12:35:11.040Z,98281.52
2018-11-13T12:37:39.815Z,98273.65
2018-11-13T12:40:13.050Z,98280.00
2018-11-13T12:42:42.714Z,98295.11
2018-11-13T12:45:12.813Z,98295.68
2018-11-13T12:47:42.267Z,98306.95
2018-11-13T12:50:12.182Z,98305.66
2018-11-13T12:52:41.195Z,98304.45
2018-11-13T12:55:13.076Z,98308.00
2018-11-13T12:57:41.847Z,98305.78
2018-11-13T13:00:13.655Z,98314.77
2018-11-13T13:02:42.783Z,98330.67
2018-11-13T13:05:12.760Z,98332.55
2018-11-13T13:07:42.120Z,98334.63
2018-11-13T13:10:12.731Z,98337.83
2018-11-13T13:12:42.133Z,98339.97
2018-11-13T13:15:12.934Z,98354.08
2018-11-13T13:17:42.101Z,98351.33
2018-11-13T13:20:14.264Z,98359.63
2018-11-13T13:22:43.675Z,98358.48
2018-11-13T13:25:13.984Z,98367.60
2018-11-13T13:27:42.988Z,98365.79
2018-11-13T13:30:16.274Z,98338.36
2018-11-13T13:32:45.915Z,98351.97
2018-11-13T13:35:53.439Z,98358.83
2018-11-13T13:38:22.745Z,98331.48
2018-11-13T13:40:52.763Z,98344.47
2018-11-13T13:43:22.385Z,98353.78
2018-11-13T13:45:51.388Z,98361.48
2018-11-13T13:48:20.659Z,98371.19
2018-11-13T13:50:49.457Z,98362.23
2018-11-13T13:53:19.407Z,98361.09
2018-11-13T13:55:49.413Z,98368.84
2018-11-13T13:58:19.150Z,98367.67
2018-11-13T14:00:48.162Z,98370.69
2018-11-13T14:03:17.378Z,98367.01
2018-11-13T14:05:46.647Z,98371.80
2018-11-13T14:08:16.457Z,98389.84
2018-11-13T14:10:45.485Z,98412.23
2018-11-13T14:13:15.080Z,98405.75
2018-11-13T14:15:44.355Z,98391.56
2018-11-13T14:18:13.600Z,98391.16
2018-11-13T14:20:42.368Z,98395.14
2018-11-13T14:23:11.423Z,98400.34
2018-11-13T14:25:40.363Z,98406.46
2018-11-13T14:28:09.152Z,98414.61
2018-11-13T14:30:38.258Z,98400.71
2018-11-13T14:33:08.475Z,98418.61
2018-11-13T14:35:37.342Z,98435.84
2018-11-13T14:38:06.473Z,98422.88
2018-11-13T14:40:36.822Z,98430.17
2018-11-13T14:43:06.097Z,98417.23
2018-11-13T14:45:34.888Z,98437.45
2018-11-13T14:48:03.818Z,98459.30
2018-11-13T14:50:34.860Z,98450.95
2018-11-13T14:53:04.207Z,98445.16
2018-11-13T14:55:35.257Z,98461.00
2018-11-13T14:58:05.099Z,98465.09
2018-11-13T15:00:35.509Z,98464.20
2018-11-13T15:03:05.536Z,98454.03
2018-11-13T15:05:35.041Z,98460.58
2018-11-13T15:08:05.120Z,98463.55
2018-11-13T15:10:40.078Z,98464.30
2018-11-13T15:13:09.567Z,98462.41
2018-11-13T15:15:38.353Z,98451.81
2018-11-13T15:18:07.513Z,98471.13
2018-11-13T15:20:37.206Z,98470.09
2018-11-13T15:23:06.815Z,98476.30
2018-11-13T15:25:35.693Z,98479.19
2018-11-13T15:28:05.155Z,98481.78
2018-11-13T15:30:34.884Z,98486.96
2018-11-13T15:33:09.245Z,98489.53
2018-11-13T15:35:38.073Z,98487.84
2018-11-13T15:38:10.259Z,98490.53
2018-11-13T15:40:39.347Z,98495.73
2018-11-13T15:43:08.115Z,98495.89
2018-11-13T15:45:36.933Z,98497.84
2018-11-13T15:48:07.139Z,98499.50
2018-11-13T15:50:37.583Z,98500.72
2018-11-13T15:53:06.779Z,98500.44
2018-11-13T15:55:35.536Z,98503.41
2018-11-13T15:58:04.472Z,98519.05
2018-11-13T16:00:35.484Z,98524.30
2018-11-13T16:03:08.336Z,98527.32
2018-11-13T16:05:39.723Z,98536.52
2018-11-13T16:08:09.079Z,98537.21
2018-11-13T16:10:38.236Z,98539.84
2018-11-13T16:13:07.207Z,98545.37
2018-11-13T16:15:36.557Z,98538.39
2018-11-13T16:18:06.781Z,98533.59
2018-11-13T16:20:35.560Z,98533.41
2018-11-13T16:23:04.675Z,98541.78
2018-11-13T16:25:33.760Z,98546.58
2018-11-13T16:28:02.488Z,98548.55
2018-11-13T16:30:32.818Z,98553.91
2018-11-13T16:33:02.228Z,98546.02
2018-11-13T16:35:31.587Z,98550.53
2018-11-13T16:38:01.618Z,98549.68
2018-11-13T16:40:31.478Z,98549.31
2018-11-13T16:43:00.539Z,98556.44
2018-11-13T16:45:30.642Z,98553.34
2018-11-13T16:48:00.201Z,98550.53
2018-11-13T16:50:31.490Z,98549.87
2018-11-13T16:53:00.851Z,98542.25
2018-11-13T16:55:35.016Z,98549.23
2018-11-13T16:58:05.155Z,98556.94
2018-11-13T17:00:34.061Z,98561.36
2018-11-13T17:03:03.451Z,98557.22
2018-11-13T17:05:32.348Z,98554.77
2018-11-13T17:08:01.176Z,98553.72
2018-11-13T17:10:31.100Z,98559.09
2018-11-13T17:13:00.912Z,98559.46
2018-11-13T17:15:30.790Z,98564.34
2018-11-13T17:18:00.899Z,98562.56
2018-11-13T17:20:29.894Z,98569.73
2018-11-13T17:22:59.181Z,98566.23
2018-11-13T17:25:29.461Z,98571.48
2018-11-13T17:27:58.461Z,98565.66
2018-11-13T17:30:34.260Z,98576.66
2018-11-13T17:33:04.557Z,98568.86
2018-11-13T17:35:33.316Z,98567.87
2018-11-13T17:38:02.853Z,98573.71
2018-11-13T17:40:33.083Z,98576.79
2018-11-13T17:43:03.247Z,98585.31
2018-11-13T17:45:33.394Z,98593.56
2018-11-13T17:48:02.188Z,98580.52
2018-11-13T17:50:33.452Z,98580.23
2018-11-13T17:53:02.615Z,98578.72
2018-11-13T17:55:32.357Z,98584.37
2018-11-13T17:58:03.844Z,98586.05
2018-11-13T18:00:34.506Z,98583.51
2018-11-13T18:03:04.388Z,98574.86
2018-11-13T18:05:33.979Z,98586.52
2018-11-13T18:08:04.028Z,98589.73
2018-11-13T18:10:33.507Z,98599.88
2018-11-13T18:13:02.454Z,98606.03
2018-11-13T18:15:31.592Z,98610.03
2018-11-13T18:18:00.956Z,98610.06
2018-11-13T18:20:31.140Z,98609.48
2018-11-13T18:23:01.619Z,98607.88
2018-11-13T18:25:30.687Z,98612.57
2018-11-13T18:28:00.789Z,98609.56
2018-11-13T18:30:31.511Z,98615.20
2018-11-13T18:33:01.343Z,98615.56
2018-11-13T18:35:31.462Z,98614.53
2018-11-13T18:38:03.078Z,98622.28
2018-11-13T18:40:33.069Z,98623.40
2018-11-13T18:43:04.764Z,98623.08
2018-11-13T18:45:36.924Z,98623.02
2018-11-13T18:48:07.319Z,98620.44
2018-11-13T18:50:42.828Z,98621.70
2018-11-13T18:53:11.688Z,98618.23
2018-11-13T18:55:41.092Z,98610.77
2018-11-13T18:58:10.032Z,98615.45
2018-11-13T19:00:39.869Z,98611.03
2018-11-13T19:03:10.174Z,98612.06
2018-11-13T19:05:39.210Z,98625.30
2018-11-13T19:08:08.710Z,98633.02
2018-11-13T19:10:41.890Z,98626.53
2018-11-13T19:13:27.250Z,98634.05
2018-11-13T19:15:58.979Z,98638.59
2018-11-13T19:18:28.368Z,98635.86
2018-11-13T19:20:57.697Z,98629.92
2018-11-13T19:23:26.679Z,98635.27
2018-11-13T19:25:55.649Z,98639.36
2018-11-13T19:28:24.456Z,98638.66
2018-11-13T19:30:53.250Z,98637.78
2018-11-13T19:33:22.163Z,98634.89
2018-11-13T19:35:51.417Z,98644.80
2018-11-13T19:38:20.350Z,98645.20
2018-11-13T19:40:49.525Z,98649.53
2018-11-13T19:43:18.613Z,98658.95
2018-11-13T19:45:47.469Z,98660.41
2018-11-13T19:48:16.208Z,98659.55
2018-11-13T19:50:45.163Z,98661.84
2018-11-13T19:53:14.260Z,98660.02
2018-11-13T19:55:43.085Z,98665.71
2018-11-13T19:58:12.105Z,98664.31
2018-11-13T20:00:41.063Z,98667.58
2018-11-13T20:03:10.806Z,98672.58
2018-11-13T20:05:39.930Z,98673.56
2018-11-13T20:08:09.185Z,98664.19
2018-11-13T20:10:39.339Z,98665.33
2018-11-13T20:13:09.186Z,98665.16
2018-11-13T20:15:38.583Z,98670.84
2018-11-13T20:18:07.372Z,98664.19
2018-11-13T20:20:36.384Z,98664.22
2018-11-13T20:23:06.607Z,98665.45
2018-11-13T20:25:36.111Z,98668.70
2018-11-13T20:28:04.959Z,98666.67
2018-11-13T20:30:39.328Z,98659.05
2018-11-13T20:33:08.625Z,98665.36
2018-11-13T20:35:37.721Z,98660.66
2018-11-13T20:38:07.029Z,98667.28
2018-11-13T20:40:36.660Z,98661.13
2018-11-13T20:43:07.076Z,98672.97
2018-11-13T20:45:35.830Z,98674.42
2018-11-13T20:48:06.146Z,98669.71
2018-11-13T20:50:35.103Z,98674.97
2018-11-13T20:53:04.525Z,98677.59
2018-11-13T20:55:33.316Z,98690.71
2018-11-13T20:58:03.206Z,98679.27
2018-11-13T21:00:35.028Z,98688.80
2018-11-13T21:03:04.107Z,98687.09
2018-11-13T21:05:33.093Z,98691.91
2018-11-13T21:08:01.908Z,98693.34
2018-11-13T21:10:38.279Z,98691.09
2018-11-13T21:13:07.815Z,98687.55
2018-11-13T21:15:36.593Z,98689.87
2018-11-13T21:18:05.425Z,98687.71
2018-11-13T21:20:34.472Z,98695.61
2018-11-13T21:23:03.282Z,98690.91
2018-11-13T21:25:32.353Z,98700.43
2018-11-13T21:28:02.280Z,98697.36
2018-11-13T21:30:32.320Z,98694.66
2018-11-13T21:33:01.251Z,98699.27
2018-11-13T21:35:30.363Z,98708.91
2018-11-13T21:37:59.156Z,98703.81
2018-11-13T21:40:28.504Z,98703.95
2018-11-13T21:42:58.013Z,98705.74
2018-11-13T21:45:27.906Z,98704.39
2018-11-13T21:47:56.949Z,98696.91
2018-11-13T21:50:29.000Z,98711.06
2018-11-13T21:52:57.906Z,98708.61
2018-11-13T21:55:27.758Z,98713.54
2018-11-13T21:57:57.037Z,98707.25
2018-11-13T22:00:27.956Z,98705.73
2018-11-13T22:02:58.352Z,98699.17
2018-11-13T22:05:28.243Z,98705.19
2018-11-13T22:07:57.108Z,98695.69
2018-11-13T22:10:26.079Z,98706.20
2018-11-13T22:12:54.896Z,98706.89
2018-11-13T22:15:24.922Z,98712.67
2018-11-13T22:17:53.866Z,98710.59
2018-11-13T22:20:23.374Z,98706.01
2018-11-13T22:22:53.441Z,98696.93
2018-11-13T22:25:23.934Z,98699.91
2018-11-13T22:27:54.199Z,98701.94
2018-11-13T22:30:26.049Z,98703.20
2018-11-13T22:32:54.843Z,98703.91
2018-11-13T22:35:24.280Z,98710.03
2018-11-13T22:37:53.052Z,98707.16
2018-11-13T22:40:23.161Z,98706.20
2018-11-13T22:42:52.004Z,98711.61
2018-11-13T22:45:26.016Z,98706.75
2018-11-13T22:47:55.596Z,98708.28
2018-11-13T22:50:26.670Z,98711.00
2018-11-13T22:52:56.016Z,98701.22
2018-11-13T22:55:24.794Z,98703.88
2018-11-13T22:57:54.902Z,98701.89
2018-11-13T23:00:26.140Z,98705.37
2018-11-13T23:02:55.435Z,98707.07
2018-11-13T23:05:24.227Z,98704.53
2018-11-13T23:07:52.995Z,98707.45
2018-11-13T23:10:22.010Z,98704.14
2018-11-13T23:12:50.847Z,98696.47
2018-11-13T23:15:21.001Z,98698.67
2018-11-13T23:17:49.911Z,98701.00
2018-11-13T23:20:19.832Z,98698.37
2018-11-13T23:22:48.638Z,98709.19
2018-11-13T23:25:18.432Z,98704.95
2018-11-13T23:27:48.747Z,98708.34
2018-11-13T23:30:19.259Z,98701.09
2018-11-13T23:32:48.403Z,98701.30
2018-11-13T23:35:17.605Z,98693.49
2018-11-13T23:37:47.554Z,98696.47
2018-11-13T23:40:17.692Z,98703.63
2018-11-13T23:42:47.244Z,98706.09
2018-11-13T23:45:17.459Z,98698.58
2018-11-13T23:47:46.927Z,98710.84
2018-11-13T23:50:15.815Z,98699.90
2018-11-13T23:52:45.101Z,98702.28
2018-11-13T23:55:14.570Z,98694.98
2018-11-13T23:57:44.231Z,98695.57
